Kezdőlap
METAR-TAF:

METAR-TAF

Repülőterek :

Udon Thani, Thaiföld

földrajzi szélesség: 17-23N, földrajzi hosszúság: 102-48E, magasság: 177 m

Jelenlegi meteorológiai megfigyelések

A jelentés 31 perccel ezelõtt készült, 07:00 UTC
Délnyugati szél 6 kt, déli és észak-északnyugati között változik
Hőmérséklet 35°C
Páratartalom 50%
Légköri nyomás 1005 hPa
Látótávolság 10 km, vagy több
Szórványos felhőzet 4500 lábon

METAR: VTUD 280700Z 23006KT 170V330 9999 SCT045 35/23 Q1005 NOSIG

Idő: 14:31 (07:31 UTC)

Előrejelzés

A jelentés 2 órával és 31 perccel ezelõtt készült, 05:00 UTC
Az előrejelzés 28-én 06 óra UTC és 29-én 06 óra UTC között érvényes
Nyugat-délnyugati szél 5 kt
Látótávolság: 9000 m
Kevés felhő 3000 lábon
Szórványos felhőzet 10000 lábon

TAF: VTUD 280500Z 2806/2906 25005KT 9000 FEW030 SCT100

Meteorológiai megfigyelések és előrejelzések több, mint 4000 repülőtéren (METAR és TAF jelentéseket).

A térképen piros és sárga pontok jelzik az elérhető meteorológiai állomásokat.

Mozgassa az egeret a pont fölött, hogy megjelenjen az állomás neve.

Azután kattintson az időjárási megfigyelések és előrejelzések megtekintéséhez.

A térkép megváltoztatása: kattintson a fekete keresztel jelölt zöld gombra ráközelítéshez, a vonallal jelölt zöld gombra távolításhoz, vagy a zöld nyilakra a szomszédos térképek eléréséhez.


METAR-TAF: